Time;durP1;ratioP1;P1;durP2;ratioP2;P2;SDS_P1;SDS_P2;PMS_P1;PMS_P2;Temp;Humidity;BMP_temperature;BMP_pressure;BME280_temperature;BME280_humidity;BME280_pressure;Samples;Min_cycle;Max_cycle;Signal;HPM_P1;HPM_P2
2024/02/12 00:01:45;;;;;;;5.38;1.15;;;8.60;99.90;;;;;;5009765;28;20141;-66
2024/02/12 00:04:14;;;;;;;5.10;1.83;;;8.60;99.90;;;;;;5010181;28;20053;-66
2024/02/12 00:06:42;;;;;;;2.72;1.00;;;8.60;99.90;;;;;;5008221;28;20145;-66
2024/02/12 00:09:09;;;;;;;4.78;1.20;;;8.60;99.90;;;;;;5011456;28;20073;-66
2024/02/12 00:11:36;;;;;;;6.75;1.33;;;8.60;99.90;;;;;;5009220;28;20176;-66
2024/02/12 00:14:04;;;;;;;3.35;1.15;;;8.60;99.90;;;;;;5008924;28;20141;-66
2024/02/12 00:16:31;;;;;;;2.88;1.27;;;8.60;99.90;;;;;;5010514;28;20441;-66
2024/02/12 00:18:59;;;;;;;3.65;1.25;;;8.60;99.90;;;;;;5011756;28;20069;-66
2024/02/12 00:21:28;;;;;;;6.38;1.42;;;8.50;99.90;;;;;;5007066;28;20049;-66
2024/02/12 00:23:55;;;;;;;4.88;1.10;;;8.50;99.90;;;;;;5009969;28;20050;-66
2024/02/12 00:26:25;;;;;;;3.65;1.15;;;8.50;99.90;;;;;;5009826;28;20065;-66
2024/02/12 00:28:54;;;;;;;;;;;8.50;99.90;;;;;;5010116;28;20353;-66
2024/02/12 00:31:22;;;;;;;5.32;1.00;;;8.60;99.90;;;;;;5009952;28;19954;-66
2024/02/12 00:33:49;;;;;;;3.50;1.27;;;8.60;99.90;;;;;;5004754;28;20041;-66
2024/02/12 00:36:17;;;;;;;3.22;1.17;;;8.60;99.90;;;;;;5006845;28;20054;-64
2024/02/12 00:38:45;;;;;;;4.43;1.23;;;8.60;99.90;;;;;;5009459;28;20037;-66
2024/02/12 00:41:12;;;;;;;5.03;1.10;;;8.60;99.90;;;;;;5009385;28;20591;-66
2024/02/12 00:43:43;;;;;;;3.45;1.23;;;8.70;99.90;;;;;;5009072;28;20049;-66
2024/02/12 00:46:11;;;;;;;3.60;1.38;;;8.60;99.90;;;;;;5009590;28;20120;-65
2024/02/12 00:48:39;;;;;;;3.78;1.42;;;8.60;99.90;;;;;;5008554;28;20057;-65
2024/02/12 00:51:06;;;;;;;7.38;1.48;;;8.60;99.90;;;;;;5011282;28;20046;-65
2024/02/12 00:53:33;;;;;;;4.07;1.17;;;8.60;99.90;;;;;;5010117;28;20053;-66
2024/02/12 00:56:02;;;;;;;6.18;1.17;;;8.60;99.90;;;;;;5008722;28;20049;-65
2024/02/12 00:58:30;;;;;;;4.30;1.38;;;8.60;99.90;;;;;;5008072;28;20069;-66
2024/02/12 01:00:58;;;;;;;3.92;1.00;;;8.60;99.90;;;;;;5007807;28;20052;-66
2024/02/12 01:03:25;;;;;;;2.88;1.30;;;8.60;99.90;;;;;;5008818;28;20122;-66
2024/02/12 01:05:53;;;;;;;5.18;1.23;;;8.60;99.90;;;;;;5008676;28;20054;-66
2024/02/12 01:08:21;;;;;;;1.95;1.30;;;8.60;99.90;;;;;;5008285;28;20453;-66
2024/02/12 01:10:48;;;;;;;4.53;1.25;;;8.60;99.90;;;;;;5010372;28;20129;-66
2024/02/12 01:13:15;;;;;;;3.55;1.20;;;8.60;99.90;;;;;;5009386;28;20046;-65
2024/02/12 01:15:45;;;;;;;3.30;1.10;;;8.60;99.90;;;;;;5008023;28;20046;-65
2024/02/12 01:18:12;;;;;;;8.37;1.73;;;8.60;99.90;;;;;;5009228;28;20119;-66
2024/02/12 01:20:39;;;;;;;4.28;1.45;;;8.70;99.90;;;;;;5010020;28;20304;-66
2024/02/12 01:23:06;;;;;;;4.25;1.10;;;8.70;99.90;;;;;;5011946;28;20048;-66
2024/02/12 01:25:34;;;;;;;5.05;1.35;;;8.60;99.90;;;;;;5007463;28;20046;-66
2024/02/12 01:28:01;;;;;;;4.70;1.40;;;8.60;99.90;;;;;;5007463;28;20088;-66
2024/02/12 01:30:30;;;;;;;6.28;1.27;;;8.60;99.90;;;;;;5008769;28;20109;-66
2024/02/12 01:32:57;;;;;;;4.70;1.60;;;8.60;99.90;;;;;;5007486;28;20104;-65
2024/02/12 01:35:24;;;;;;;6.53;1.50;;;8.60;99.90;;;;;;5008325;28;20050;-66
2024/02/12 01:37:51;;;;;;;2.75;1.25;;;8.60;99.90;;;;;;5010953;28;20052;-66
2024/02/12 01:40:19;;;;;;;5.10;1.65;;;8.60;99.90;;;;;;5006308;28;20045;-66
2024/02/12 01:42:49;;;;;;;4.57;1.30;;;8.60;99.90;;;;;;5011581;28;20076;-66
2024/02/12 01:45:23;;;;;;;4.18;1.60;;;8.50;99.90;;;;;;5007439;28;20490;-66
2024/02/12 01:47:57;;;;;;;2.63;1.17;;;8.50;99.90;;;;;;5008845;28;20799;-66
2024/02/12 01:50:26;;;;;;;3.45;1.13;;;8.50;99.90;;;;;;5006783;28;20129;-66
2024/02/12 01:52:53;;;;;;;4.63;1.10;;;8.60;99.90;;;;;;5007152;28;20045;-66
2024/02/12 01:55:23;;;;;;;2.53;1.10;;;8.60;99.90;;;;;;5007943;28;20502;-66
2024/02/12 01:57:51;;;;;;;5.07;1.50;;;8.60;99.90;;;;;;5007927;28;20130;-66
2024/02/12 02:00:21;;;;;;;3.50;1.00;;;8.60;99.90;;;;;;5008301;28;20049;-66
2024/02/12 02:02:49;;;;;;;3.72;1.20;;;8.60;99.90;;;;;;5005883;28;20130;-65
2024/02/12 02:05:16;;;;;;;2.28;1.08;;;8.50;99.90;;;;;;5007638;28;20050;-66
2024/02/12 02:07:47;;;;;;;3.53;1.35;;;8.50;99.90;;;;;;5007576;28;20066;-65
2024/02/12 02:10:14;;;;;;;4.70;1.10;;;8.50;99.90;;;;;;5009194;28;20519;-65
2024/02/12 02:12:42;;;;;;;3.75;1.50;;;8.40;99.90;;;;;;5007169;28;20073;-66
2024/02/12 02:15:09;;;;;;;3.17;1.15;;;8.30;99.90;;;;;;5007505;28;20430;-66
2024/02/12 02:17:36;;;;;;;3.55;0.90;;;8.30;99.90;;;;;;5010933;28;20050;-66
2024/02/12 02:20:07;;;;;;;3.40;1.00;;;8.30;99.90;;;;;;5007538;28;20211;-65
2024/02/12 02:22:34;;;;;;;4.63;1.60;;;8.30;99.90;;;;;;5008043;28;20052;-66
2024/02/12 02:25:01;;;;;;;3.25;1.00;;;8.30;99.90;;;;;;5008471;28;20049;-66
2024/02/12 02:27:28;;;;;;;4.22;1.38;;;8.30;99.90;;;;;;5010187;28;20054;-65
2024/02/12 02:29:54;;;;;;;4.45;1.08;;;8.30;99.90;;;;;;5007708;28;20072;-66
2024/02/12 02:32:21;;;;;;;3.65;1.20;;;8.30;99.90;;;;;;5006984;28;20498;-65
2024/02/12 02:34:48;;;;;;;5.13;1.20;;;8.30;99.90;;;;;;5007277;28;20502;-66
2024/02/12 02:37:16;;;;;;;2.58;1.25;;;8.20;99.90;;;;;;5007639;28;20050;-66
2024/02/12 02:39:42;;;;;;;3.42;1.20;;;8.20;99.90;;;;;;5007160;28;20046;-66
2024/02/12 02:42:09;;;;;;;4.45;1.30;;;8.20;99.90;;;;;;5007653;28;20081;-66
2024/02/12 02:44:39;;;;;;;4.28;1.40;;;8.20;99.90;;;;;;5006417;28;20509;-65
2024/02/12 02:47:08;;;;;;;3.85;1.33;;;8.20;99.90;;;;;;5005845;28;20103;-65
2024/02/12 02:49:35;;;;;;;2.90;1.23;;;8.10;99.90;;;;;;5006242;28;20046;-65
2024/02/12 02:52:02;;;;;;;3.60;1.30;;;8.20;99.90;;;;;;5007768;28;20556;-65
2024/02/12 02:54:29;;;;;;;7.43;1.35;;;8.10;99.90;;;;;;5006983;28;20074;-66
2024/02/12 02:56:57;;;;;;;2.03;0.95;;;8.20;99.90;;;;;;5007708;28;20054;-65
2024/02/12 02:59:25;;;;;;;3.70;1.55;;;8.20;99.90;;;;;;5006289;28;20549;-66
2024/02/12 03:01:52;;;;;;;4.65;1.25;;;8.20;99.90;;;;;;5007704;28;20053;-66
2024/02/12 03:04:19;;;;;;;3.03;1.13;;;8.20;99.90;;;;;;5005697;28;20050;-65
2024/02/12 03:06:45;;;;;;;6.38;1.42;;;8.20;99.90;;;;;;5007278;28;20042;-66
2024/02/12 03:09:13;;;;;;;4.45;1.17;;;8.20;99.90;;;;;;5009378;28;20053;-65
2024/02/12 03:11:40;;;;;;;4.30;1.77;;;8.20;99.90;;;;;;5010834;28;20149;-66
2024/02/12 03:14:08;;;;;;;4.70;1.40;;;8.20;99.90;;;;;;5006651;28;20103;-66
2024/02/12 03:16:36;;;;;;;5.63;1.40;;;8.10;99.90;;;;;;5006576;28;20564;-65
2024/02/12 03:19:05;;;;;;;3.83;1.30;;;8.20;99.90;;;;;;5006226;28;20406;-65
2024/02/12 03:21:32;;;;;;;3.00;1.40;;;8.20;99.90;;;;;;5004329;28;20092;-65
2024/02/12 03:23:59;;;;;;;4.82;1.95;;;8.20;99.90;;;;;;5005757;28;20038;-65
2024/02/12 03:26:26;;;;;;;6.75;1.27;;;8.20;99.90;;;;;;5005022;28;20054;-66
2024/02/12 03:28:53;;;;;;;2.95;1.40;;;8.20;99.90;;;;;;5006006;28;20458;-65
2024/02/12 03:31:20;;;;;;;4.25;1.55;;;8.20;99.90;;;;;;5008419;28;20046;-66
2024/02/12 03:33:49;;;;;;;2.00;1.20;;;8.20;99.90;;;;;;5007294;28;20050;-66
2024/02/12 03:36:16;;;;;;;4.10;1.33;;;8.20;99.90;;;;;;5006456;28;20042;-65
2024/02/12 03:38:44;;;;;;;8.32;2.67;;;8.20;99.90;;;;;;5007037;28;20045;-65
2024/02/12 03:41:23;;;;;;;1.67;1.20;;;8.20;99.90;;;;;;5009247;28;20061;-65
2024/02/12 03:43:52;;;;;;;3.03;1.63;;;8.10;99.90;;;;;;5003004;28;20557;-66
2024/02/12 03:46:20;;;;;;;4.75;1.63;;;8.10;99.90;;;;;;5006069;28;20498;-65
2024/02/12 03:59:51;;;;;;;4.03;1.40;;;8.20;99.90;;;;;;5005588;28;20146;-65
2024/02/12 04:02:19;;;;;;;5.20;1.80;;;8.20;99.90;;;;;;5006435;28;20120;-65
2024/02/12 04:04:46;;;;;;;2.67;1.35;;;8.20;99.90;;;;;;5005571;28;20526;-65
2024/02/12 04:07:13;;;;;;;4.45;1.33;;;8.10;99.90;;;;;;5007377;28;20050;-65
2024/02/12 04:09:41;;;;;;;2.95;1.98;;;8.20;99.90;;;;;;5006930;28;20060;-65
2024/02/12 04:12:12;;;;;;;2.92;1.25;;;8.10;99.90;;;;;;5010542;28;20064;-65
2024/02/12 04:14:42;;;;;;;4.03;1.70;;;8.10;99.90;;;;;;5005698;28;20054;-66
2024/02/12 04:17:09;;;;;;;3.42;1.50;;;8.10;99.90;;;;;;5005305;28;20585;-66
2024/02/12 04:19:36;;;;;;;6.25;1.52;;;8.10;99.90;;;;;;5005535;28;20121;-66
2024/02/12 04:22:14;;;;;;;3.88;1.50;;;8.10;99.90;;;;;;5005881;28;20050;-66
2024/02/12 04:24:42;;;;;;;2.03;1.35;;;8.10;99.90;;;;;;5005027;28;20046;-65
2024/02/12 04:27:10;;;;;;;3.10;1.40;;;8.10;99.90;;;;;;5005534;28;20069;-65
2024/02/12 04:29:39;;;;;;;3.83;1.50;;;8.10;99.90;;;;;;5006062;28;20057;-66
2024/02/12 04:32:11;;;;;;;4.47;1.42;;;8.10;99.90;;;;;;5007099;28;20050;-65
2024/02/12 04:34:42;;;;;;;4.20;1.52;;;8.10;99.90;;;;;;5000533;28;20083;-66
2024/02/12 04:37:10;;;;;;;3.13;1.60;;;8.10;99.90;;;;;;5011447;28;20058;-66
2024/02/12 04:39:38;;;;;;;6.60;1.55;;;8.10;99.90;;;;;;5009100;28;20103;-66
2024/02/12 04:42:05;;;;;;;2.95;1.25;;;8.10;99.90;;;;;;5009166;28;20057;-66
2024/02/12 04:44:32;;;;;;;2.67;1.02;;;8.00;99.90;;;;;;5008163;28;20743;-65
2024/02/12 04:46:59;;;;;;;2.65;1.40;;;8.10;99.90;;;;;;5006169;28;20049;-66
2024/02/12 04:49:27;;;;;;;3.55;1.20;;;8.10;99.90;;;;;;5007699;28;20049;-66
2024/02/12 04:51:54;;;;;;;4.15;1.30;;;8.00;99.90;;;;;;5009464;28;20046;-66
2024/02/12 04:54:25;;;;;;;3.03;1.13;;;8.10;99.90;;;;;;5012791;28;20053;-65
2024/02/12 04:56:52;;;;;;;1.40;1.10;;;8.10;99.90;;;;;;5009193;28;20050;-66
2024/02/12 04:59:19;;;;;;;2.85;1.38;;;8.10;99.90;;;;;;5008897;28;20057;-66
2024/02/12 05:01:45;;;;;;;7.25;1.30;;;8.10;99.90;;;;;;5009681;28;20618;-65
2024/02/12 05:04:12;;;;;;;2.35;1.02;;;8.10;99.90;;;;;;5008471;28;20116;-66
2024/02/12 05:06:39;;;;;;;3.28;1.13;;;8.10;99.90;;;;;;5009132;28;20061;-66
2024/02/12 05:09:09;;;;;;;5.13;1.50;;;8.10;99.90;;;;;;5008782;28;20100;-66
2024/02/12 05:11:35;;;;;;;4.75;1.20;;;8.10;99.90;;;;;;5008311;28;20057;-66
2024/02/12 05:14:03;;;;;;;6.80;1.40;;;8.00;99.90;;;;;;5008153;28;20041;-66
2024/02/12 05:16:32;;;;;;;5.05;1.65;;;8.00;99.90;;;;;;5009432;28;20042;-66
2024/02/12 05:24:37;;;;;;;5.53;1.52;;;8.00;99.90;;;;;;5006556;28;20465;-65
2024/02/12 05:27:04;;;;;;;4.55;1.48;;;8.00;99.90;;;;;;5008567;28;20092;-66
2024/02/12 05:29:31;;;;;;;6.90;1.90;;;8.00;99.90;;;;;;5005944;28;20038;-66
2024/02/12 05:31:58;;;;;;;4.55;1.60;;;8.00;99.90;;;;;;5008023;28;20449;-66
2024/02/12 05:34:25;;;;;;;4.70;1.40;;;8.00;99.90;;;;;;5005593;28;20065;-65
2024/02/12 05:36:55;;;;;;;5.13;1.30;;;8.00;99.90;;;;;;5003477;28;20041;-66
2024/02/12 05:39:22;;;;;;;3.38;1.15;;;8.00;99.90;;;;;;5006645;28;20536;-66
2024/02/12 05:41:49;;;;;;;3.83;2.17;;;8.00;99.90;;;;;;5008093;28;20042;-66
2024/02/12 05:44:17;;;;;;;3.90;1.30;;;8.00;99.90;;;;;;5006139;28;20042;-66
2024/02/12 05:46:44;;;;;;;8.32;1.23;;;8.00;99.90;;;;;;5006253;28;20283;-65
2024/02/12 05:49:14;;;;;;;4.20;1.33;;;8.00;99.90;;;;;;5008209;28;20560;-65
2024/02/12 05:51:44;;;;;;;4.07;1.80;;;8.00;99.90;;;;;;5007261;28;20096;-65
2024/02/12 05:54:11;;;;;;;8.13;2.38;;;8.00;99.90;;;;;;5007321;28;20045;-65
2024/02/12 05:56:39;;;;;;;7.78;2.03;;;8.00;99.90;;;;;;5007254;28;20290;-65
2024/02/12 05:59:09;;;;;;;4.43;1.73;;;8.00;99.90;;;;;;5007255;28;20049;-65
2024/02/12 06:01:36;;;;;;;4.90;1.70;;;8.00;99.90;;;;;;5008171;28;20050;-65
2024/02/12 06:04:03;;;;;;;5.32;1.65;;;8.00;99.90;;;;;;5006405;28;20049;-64
2024/02/12 06:06:30;;;;;;;5.68;1.85;;;8.00;99.90;;;;;;5005111;28;20054;-64
2024/02/12 06:08:58;;;;;;;4.18;2.08;;;7.90;99.90;;;;;;5005533;28;20270;-64
2024/02/12 06:11:24;;;;;;;4.80;1.48;;;7.90;99.90;;;;;;5014424;28;20422;-64
2024/02/12 06:13:52;;;;;;;4.65;1.60;;;7.90;99.90;;;;;;5005521;28;20049;-65
2024/02/12 06:16:18;;;;;;;4.40;1.35;;;7.90;99.90;;;;;;5007991;28;20058;-66
2024/02/12 06:18:46;;;;;;;5.50;1.60;;;7.90;99.90;;;;;;5005479;28;20045;-64
2024/02/12 06:21:13;;;;;;;8.35;1.73;;;7.90;99.90;;;;;;5004602;28;20046;-65
2024/02/12 06:23:40;;;;;;;3.92;1.42;;;7.90;99.90;;;;;;5006172;28;20363;-66
2024/02/12 06:26:07;;;;;;;6.70;1.73;;;7.90;99.90;;;;;;5006149;28;20038;-65
2024/02/12 06:28:34;;;;;;;2.65;1.35;;;7.90;99.90;;;;;;5004510;28;20624;-65
2024/02/12 06:31:01;;;;;;;4.65;1.60;;;7.80;99.90;;;;;;5004492;28;20045;-65
2024/02/12 06:33:28;;;;;;;8.27;2.35;;;7.90;99.90;;;;;;5007173;28;20061;-65
2024/02/12 06:35:56;;;;;;;7.22;2.25;;;7.90;99.90;;;;;;5005246;28;20445;-65
2024/02/12 06:38:23;;;;;;;8.43;2.00;;;7.90;99.90;;;;;;5004324;28;20115;-65
2024/02/12 06:40:50;;;;;;;6.82;1.60;;;7.90;99.90;;;;;;5004098;28;20052;-65
2024/02/12 06:43:17;;;;;;;5.80;2.38;;;7.90;99.90;;;;;;5005161;28;20054;-65
2024/02/12 06:45:43;;;;;;;8.23;2.55;;;7.90;99.90;;;;;;5004530;28;20048;-65
2024/02/12 06:48:10;;;;;;;11.43;2.80;;;7.90;99.90;;;;;;5006625;28;20073;-65
2024/02/12 06:50:37;;;;;;;6.95;2.20;;;7.90;99.90;;;;;;5004968;28;20057;-65
2024/02/12 06:53:04;;;;;;;4.60;1.80;;;7.90;99.90;;;;;;5005761;28;20046;-65
2024/02/12 06:55:31;;;;;;;5.22;1.55;;;7.90;99.90;;;;;;5004533;28;20061;-65
2024/02/12 06:57:59;;;;;;;5.47;1.10;;;7.90;99.90;;;;;;5004958;28;20049;-65
2024/02/12 07:00:26;;;;;;;5.47;1.58;;;7.90;99.90;;;;;;5006218;28;20073;-65
2024/02/12 07:02:54;;;;;;;1.88;1.33;;;8.00;99.90;;;;;;5004537;28;20132;-65
2024/02/12 07:05:21;;;;;;;9.90;1.67;;;8.00;99.90;;;;;;5001124;28;20560;-65
2024/02/12 07:07:48;;;;;;;7.35;1.88;;;7.90;99.90;;;;;;5007149;28;20340;-65
2024/02/12 07:10:15;;;;;;;4.55;1.92;;;7.90;99.90;;;;;;5003008;28;20053;-65
2024/02/12 07:12:42;;;;;;;7.07;1.90;;;8.00;99.90;;;;;;5001422;28;20073;-62
2024/02/12 07:15:10;;;;;;;8.38;1.70;;;8.00;99.90;;;;;;4996008;28;20410;-64
2024/02/12 07:17:37;;;;;;;4.95;1.38;;;8.00;99.90;;;;;;5004157;28;20050;-66
2024/02/12 07:20:09;;;;;;;11.55;1.95;;;8.00;99.90;;;;;;5008874;28;20050;-65
2024/02/12 07:22:36;;;;;;;7.85;1.77;;;8.00;99.90;;;;;;5012463;28;20060;-64
2024/02/12 07:25:04;;;;;;;7.20;1.70;;;8.00;99.90;;;;;;5004867;28;20046;-64
2024/02/12 07:27:31;;;;;;;4.60;1.52;;;8.10;99.90;;;;;;5005329;28;20049;-63
2024/02/12 07:29:57;;;;;;;8.35;2.20;;;8.10;99.90;;;;;;5004406;28;20520;-64
2024/02/12 07:32:24;;;;;;;6.85;2.78;;;8.00;99.90;;;;;;5006153;28;20449;-64
2024/02/12 07:34:52;;;;;;;9.80;2.00;;;8.00;99.90;;;;;;4991780;28;20069;-64
2024/02/12 07:37:19;;;;;;;6.13;1.60;;;8.10;99.90;;;;;;5006088;28;20054;-65
2024/02/12 07:39:46;;;;;;;3.75;1.35;;;8.10;99.90;;;;;;5004944;28;20505;-65
2024/02/12 07:42:13;;;;;;;11.18;1.65;;;8.20;99.90;;;;;;4991892;28;20123;-64
2024/02/12 07:44:41;;;;;;;5.85;1.88;;;8.20;99.90;;;;;;5003726;28;20530;-64
2024/02/12 07:47:07;;;;;;;9.15;1.73;;;8.20;99.90;;;;;;5006013;28;20077;-65
2024/02/12 07:49:34;;;;;;;6.18;1.52;;;8.30;99.90;;;;;;5005078;28;20414;-67
2024/02/12 07:52:05;;;;;;;9.50;1.83;;;8.40;99.90;;;;;;5004913;28;20042;-65
2024/02/12 07:54:34;;;;;;;9.50;1.95;;;8.40;99.90;;;;;;5000356;28;20060;-65
2024/02/12 07:57:01;;;;;;;9.40;2.17;;;8.50;99.90;;;;;;4997062;28;20050;-66
2024/02/12 07:59:28;;;;;;;6.85;1.88;;;8.50;99.90;;;;;;4998909;28;20057;-66
2024/02/12 08:01:55;;;;;;;4.07;2.15;;;8.50;99.90;;;;;;4998485;28;20050;-66
2024/02/12 08:04:22;;;;;;;4.88;1.60;;;8.60;99.90;;;;;;5004055;28;20108;-66
2024/02/12 08:06:49;;;;;;;6.75;1.90;;;8.70;99.90;;;;;;5003358;28;20045;-65
2024/02/12 08:09:17;;;;;;;7.72;1.90;;;8.80;99.90;;;;;;5003554;28;20052;-65
2024/02/12 08:11:45;;;;;;;11.30;2.17;;;8.90;99.90;;;;;;5004962;28;20535;-65
2024/02/12 08:14:12;;;;;;;5.22;1.67;;;8.90;99.90;;;;;;5006285;28;20045;-64
2024/02/12 08:16:43;;;;;;;9.88;2.22;;;8.90;99.90;;;;;;5004506;28;20391;-66
2024/02/12 08:19:11;;;;;;;5.50;2.20;;;8.90;99.90;;;;;;5007106;28;20137;-65
2024/02/12 08:21:38;;;;;;;8.30;1.65;;;8.90;99.90;;;;;;5007867;28;20469;-66
2024/02/12 08:24:05;;;;;;;4.93;1.50;;;8.90;99.90;;;;;;5007166;28;20344;-66
2024/02/12 08:26:32;;;;;;;4.47;1.52;;;9.00;99.90;;;;;;5009320;28;20137;-64
2024/02/12 08:28:59;;;;;;;5.55;1.73;;;9.10;99.90;;;;;;5007552;28;20448;-65
2024/02/12 08:31:27;;;;;;;7.53;1.95;;;9.20;99.90;;;;;;5009923;28;20060;-65
2024/02/12 08:33:56;;;;;;;8.77;2.13;;;9.20;99.90;;;;;;5008319;28;20438;-64
2024/02/12 08:36:24;;;;;;;3.15;2.03;;;9.20;99.90;;;;;;5008107;28;20049;-66
2024/02/12 08:38:50;;;;;;;9.48;1.40;;;9.30;99.90;;;;;;5004570;28;20062;-64
2024/02/12 08:41:25;;;;;;;7.97;2.00;;;9.40;99.90;;;;;;5005703;28;20046;-65
2024/02/12 08:43:56;;;;;;;6.45;1.92;;;9.50;99.90;;;;;;5004312;28;20284;-65
2024/02/12 08:46:23;;;;;;;7.47;1.55;;;9.50;99.90;;;;;;5005442;28;20061;-65
2024/02/12 08:48:50;;;;;;;6.40;1.70;;;9.50;99.90;;;;;;5002343;28;20061;-65
2024/02/12 08:51:18;;;;;;;10.48;2.22;;;9.30;99.90;;;;;;5007368;28;20133;-65
2024/02/12 08:53:45;;;;;;;8.93;1.85;;;9.30;99.90;;;;;;4991298;28;20498;-67
2024/02/12 08:56:17;;;;;;;5.90;1.90;;;9.30;99.90;;;;;;5004016;28;20046;-67
2024/02/12 08:58:45;;;;;;;8.15;1.75;;;9.30;99.90;;;;;;5002286;28;20053;-67
2024/02/12 09:01:12;;;;;;;8.50;1.83;;;9.20;99.90;;;;;;5003539;28;20050;-67
2024/02/12 09:03:42;;;;;;;4.03;1.38;;;9.20;99.90;;;;;;5004239;28;20054;-67
2024/02/12 09:06:12;;;;;;;6.97;1.75;;;9.20;99.90;;;;;;5004358;28;20092;-67
2024/02/12 09:08:43;;;;;;;8.77;2.03;;;9.10;99.90;;;;;;5002710;28;20108;-67
2024/02/12 09:11:11;;;;;;;5.00;1.73;;;9.00;99.90;;;;;;4994104;28;20318;-66
2024/02/12 09:13:40;;;;;;;5.18;1.50;;;9.00;99.90;;;;;;5007500;28;20049;-66
2024/02/12 09:16:09;;;;;;;8.63;3.03;;;8.90;99.90;;;;;;5007130;28;20050;-67
2024/02/12 09:18:39;;;;;;;9.43;3.53;;;8.80;99.90;;;;;;5006981;28;20418;-64
2024/02/12 09:21:06;;;;;;;11.60;3.13;;;8.80;99.90;;;;;;4998268;28;20084;-64
2024/02/12 09:23:33;;;;;;;8.32;2.15;;;8.80;99.90;;;;;;4989948;28;20120;-66
2024/02/12 09:26:00;;;;;;;6.85;2.05;;;8.90;99.90;;;;;;4990967;28;20046;-65
2024/02/12 09:28:27;;;;;;;12.32;3.22;;;8.80;99.90;;;;;;4989721;28;20602;-67
2024/02/12 09:30:57;;;;;;;11.38;2.60;;;8.80;99.90;;;;;;4972726;28;20609;-65
2024/02/12 09:33:24;;;;;;;20.60;9.35;;;8.70;99.90;;;;;;4988757;28;20051;-66
2024/02/12 09:35:52;;;;;;;11.38;3.50;;;8.70;99.90;;;;;;4987973;28;20150;-67
2024/02/12 09:38:19;;;;;;;7.43;2.05;;;8.70;99.90;;;;;;4991004;28;20050;-66
2024/02/12 09:40:46;;;;;;;9.02;2.78;;;8.60;99.90;;;;;;4989197;28;20553;-66
2024/02/12 09:43:13;;;;;;;10.40;2.10;;;8.70;99.90;;;;;;4989163;28;20073;-66
2024/02/12 09:45:44;;;;;;;6.50;1.70;;;8.80;99.90;;;;;;4989434;28;20093;-66
2024/02/12 09:48:12;;;;;;;6.40;1.73;;;8.80;99.90;;;;;;4989693;28;20053;-66
2024/02/12 09:50:44;;;;;;;6.85;2.15;;;9.00;99.90;;;;;;4989401;28;20065;-66
2024/02/12 09:53:13;;;;;;;6.38;2.15;;;9.10;99.90;;;;;;4988947;28;20086;-66
2024/02/12 09:55:41;;;;;;;5.90;2.15;;;9.20;99.90;;;;;;4988678;28;20054;-66
2024/02/12 09:58:08;;;;;;;7.55;1.65;;;9.30;99.90;;;;;;4988344;28;20058;-66
2024/02/12 10:00:35;;;;;;;7.72;2.30;;;9.50;99.90;;;;;;4987319;28;20058;-66
2024/02/12 10:03:03;;;;;;;4.20;1.52;;;9.70;99.90;;;;;;4985056;28;20042;-65
2024/02/12 10:05:31;;;;;;;5.15;1.23;;;9.90;99.90;;;;;;4986489;28;20046;-67
2024/02/12 10:08:01;;;;;;;5.68;1.80;;;10.10;99.90;;;;;;4984420;28;20038;-66
2024/02/12 10:10:30;;;;;;;8.45;2.58;;;10.20;99.90;;;;;;4984773;28;20439;-67
2024/02/12 10:12:57;;;;;;;3.92;1.73;;;10.40;99.90;;;;;;4982611;28;20503;-66
2024/02/12 10:15:24;;;;;;;5.68;1.63;;;10.50;99.90;;;;;;4982299;28;20054;-67
2024/02/12 10:17:55;;;;;;;4.55;1.90;;;10.70;99.90;;;;;;4982376;28;20054;-65
2024/02/12 10:20:22;;;;;;;5.53;1.60;;;10.70;99.90;;;;;;4986337;28;20050;-65
2024/02/12 10:22:49;;;;;;;4.22;1.20;;;10.90;99.90;;;;;;4985393;28;20148;-67
2024/02/12 10:25:19;;;;;;;5.88;1.38;;;10.90;99.90;;;;;;4986292;28;20651;-65
2024/02/12 10:27:46;;;;;;;5.70;1.63;;;10.90;99.90;;;;;;4984675;28;20054;-66
2024/02/12 10:30:16;;;;;;;3.13;1.33;;;11.00;99.90;;;;;;4982729;28;20423;-66
2024/02/12 10:32:50;;;;;;;8.00;1.70;;;11.10;99.90;;;;;;4983744;28;20135;-67
2024/02/12 10:35:20;;;;;;;5.28;1.48;;;11.10;99.90;;;;;;4985412;28;20054;-67
2024/02/12 10:37:49;;;;;;;3.95;1.02;;;11.20;99.90;;;;;;4984927;28;20483;-67
2024/02/12 10:40:16;;;;;;;6.72;1.48;;;11.30;99.90;;;;;;4982781;28;20129;-68
2024/02/12 10:42:52;;;;;;;4.07;1.40;;;11.30;99.90;;;;;;4986095;28;20121;-68
2024/02/12 10:45:19;;;;;;;6.25;1.30;;;11.30;99.90;;;;;;4984069;28;20105;-68
2024/02/12 10:47:47;;;;;;;4.32;1.27;;;11.30;99.90;;;;;;4970184;28;20115;-67
2024/02/12 10:50:17;;;;;;;4.82;1.15;;;11.30;99.90;;;;;;4986354;28;20072;-66
2024/02/12 10:52:46;;;;;;;6.05;1.33;;;11.30;99.90;;;;;;4983847;28;20050;-66
2024/02/12 10:55:13;;;;;;;6.85;1.95;;;11.30;99.90;;;;;;4987557;28;20081;-66
2024/02/12 10:57:43;;;;;;;6.95;1.48;;;11.30;99.90;;;;;;4984502;28;20086;-65
2024/02/12 11:00:25;;;;;;;6.35;1.85;;;11.30;99.90;;;;;;4982240;28;20702;-66
2024/02/12 11:02:55;;;;;;;3.55;1.27;;;11.50;99.90;;;;;;4982815;28;20046;-66
2024/02/12 11:05:22;;;;;;;4.80;1.38;;;11.50;99.90;;;;;;4983723;28;20572;-66
2024/02/12 11:08:10;;;;;;;3.25;1.20;;;11.50;99.90;;;;;;4985508;28;20050;-64
2024/02/12 11:10:43;;;;;;;7.78;1.30;;;11.60;99.90;;;;;;4986339;28;20042;-65
2024/02/12 11:13:15;;;;;;;3.15;1.15;;;11.60;99.90;;;;;;4989105;28;20057;-66
2024/02/12 11:15:49;;;;;;;3.95;1.20;;;11.70;99.90;;;;;;4994045;28;20056;-65
2024/02/12 11:18:16;;;;;;;4.63;1.67;;;11.80;99.90;;;;;;4988256;28;20054;-65
2024/02/12 11:20:48;;;;;;;4.82;1.42;;;12.00;99.90;;;;;;4984980;28;20072;-67
2024/02/12 11:23:22;;;;;;;4.15;1.02;;;12.10;99.90;;;;;;4981062;28;20050;-67
2024/02/12 11:25:50;;;;;;;5.95;1.10;;;12.10;99.90;;;;;;4988032;28;20042;-67
2024/02/12 11:28:25;;;;;;;6.47;1.05;;;11.90;99.90;;;;;;4994727;28;20509;-67
2024/02/12 11:30:53;;;;;;;7.05;2.30;;;12.00;99.90;;;;;;4988818;28;20455;-67
2024/02/12 11:33:21;;;;;;;5.88;1.10;;;12.10;99.90;;;;;;4982312;28;20054;-67
2024/02/12 11:35:48;;;;;;;5.35;1.15;;;12.00;99.90;;;;;;4985855;28;20163;-67
2024/02/12 11:38:15;;;;;;;3.72;1.30;;;12.10;99.90;;;;;;4995778;28;20475;-67
2024/02/12 11:40:42;;;;;;;5.93;3.28;;;12.10;99.90;;;;;;4986374;28;20052;-67
2024/02/12 11:43:10;;;;;;;2.17;1.05;;;12.20;99.90;;;;;;4967812;28;20054;-67
2024/02/12 11:45:37;;;;;;;3.13;0.90;;;12.10;99.90;;;;;;4995177;28;20050;-67
2024/02/12 11:48:09;;;;;;;6.88;1.50;;;12.30;99.90;;;;;;4993062;28;20050;-67
2024/02/12 11:50:37;;;;;;;4.88;1.27;;;12.30;99.90;;;;;;4993764;28;20471;-65
2024/02/12 11:53:05;;;;;;;6.28;1.65;;;12.20;99.90;;;;;;4996176;28;20129;-69
2024/02/12 11:55:32;;;;;;;4.80;1.23;;;12.30;99.90;;;;;;5000286;28;20469;-67
2024/02/12 11:57:59;;;;;;;5.88;2.10;;;12.40;99.90;;;;;;4989886;28;20101;-67
2024/02/12 12:00:28;;;;;;;4.90;1.50;;;12.30;99.90;;;;;;4985985;28;20053;-65
2024/02/12 12:02:55;;;;;;;9.35;1.45;;;12.30;99.90;;;;;;4986273;28;20050;-65
2024/02/12 12:05:23;;;;;;;4.57;1.02;;;12.20;99.90;;;;;;4992511;28;20050;-65
2024/02/12 12:07:51;;;;;;;4.07;1.52;;;12.10;99.90;;;;;;4989456;28;20050;-65
2024/02/12 12:10:26;;;;;;;5.13;1.10;;;12.20;99.90;;;;;;4993092;28;20607;-65
2024/02/12 12:12:57;;;;;;;4.78;1.23;;;12.20;99.90;;;;;;4991111;28;20046;-64
2024/02/12 12:15:30;;;;;;;3.88;1.30;;;12.30;99.90;;;;;;4971038;28;20137;-65
2024/02/12 12:18:00;;;;;;;6.90;1.38;;;12.40;99.90;;;;;;4985743;28;20744;-65
2024/02/12 12:20:29;;;;;;;7.30;1.58;;;12.40;99.90;;;;;;4990068;28;20491;-65
2024/02/12 12:23:00;;;;;;;5.65;1.65;;;12.50;99.90;;;;;;4992525;28;20042;-63
2024/02/12 12:25:27;;;;;;;6.13;1.30;;;12.40;99.90;;;;;;4997141;28;20150;-66
2024/02/12 12:27:54;;;;;;;2.85;1.15;;;12.50;99.90;;;;;;4973086;28;20053;-66
2024/02/12 12:30:22;;;;;;;3.67;1.30;;;12.30;99.90;;;;;;4989470;28;20426;-66
2024/02/12 12:32:51;;;;;;;5.10;1.13;;;12.40;99.90;;;;;;4992540;28;20053;-65
2024/02/12 12:35:19;;;;;;;3.88;1.00;;;12.50;99.90;;;;;;4992422;28;20065;-66
2024/02/12 12:37:46;;;;;;;5.70;1.45;;;12.50;99.90;;;;;;4993089;28;20060;-65
2024/02/12 12:40:25;;;;;;;5.20;1.45;;;12.60;99.90;;;;;;4998339;28;20457;-66
2024/02/12 12:42:57;;;;;;;4.68;1.55;;;12.70;99.90;;;;;;4974964;28;20486;-66
2024/02/12 12:45:24;;;;;;;2.50;1.23;;;12.70;99.90;;;;;;4996508;28;20273;-66
2024/02/12 12:47:51;;;;;;;4.38;1.00;;;12.70;99.90;;;;;;4993364;28;20042;-66
2024/02/12 12:50:18;;;;;;;4.72;1.30;;;12.70;99.90;;;;;;4987366;28;20053;-66
2024/02/12 12:52:45;;;;;;;4.15;1.33;;;12.90;99.90;;;;;;4993625;28;20050;-66
2024/02/12 12:55:13;;;;;;;2.67;1.10;;;13.00;99.90;;;;;;4999665;28;20498;-66
2024/02/12 12:57:42;;;;;;;6.03;1.15;;;12.90;99.90;;;;;;4990515;28;20145;-65
2024/02/12 13:00:18;;;;;;;5.40;1.95;;;12.90;99.90;;;;;;4985220;28;20054;-65
2024/02/12 13:02:46;;;;;;;5.13;1.08;;;12.80;99.90;;;;;;4997260;28;20066;-65
2024/02/12 13:05:13;;;;;;;3.15;1.35;;;12.80;99.90;;;;;;4996804;28;20076;-66
2024/02/12 13:07:43;;;;;;;4.38;1.10;;;12.70;99.90;;;;;;4994472;28;20049;-66
2024/02/12 13:10:29;;;;;;;4.20;1.55;;;12.50;99.90;;;;;;4990306;28;20046;-65
2024/02/12 13:12:59;;;;;;;4.78;1.30;;;12.50;99.90;;;;;;4995426;28;20129;-65
2024/02/12 13:15:26;;;;;;;6.82;1.60;;;12.60;99.90;;;;;;4992808;28;20374;-65
2024/02/12 13:17:54;;;;;;;4.72;1.40;;;12.50;99.90;;;;;;4985731;28;20046;-65